KPBI

Palm Beach International Airport

West Palm Beach, Florida, USA
KPBI 181120Z 1812/1912 07008KT P6SM SCT030 FM181600 08012KT P6SM SCT025 SCT250 FM190100 07008KT P6SM SCT030 SCT250
Issued Valid From Valid To
Oct-18 @ 11:20 UTC
(45 minutes ago)
Oct-18 @ 12:00 UTC
(5 minutes ago)
Oct-19 @ 12:00 UTC
(in 24 hours)
Oct-18 @ 12:00 to Oct-18 @ 16:00
KPBI 181120Z 1812/1912 07008KT P6SM SCT030
Wind Visibility Clouds
70° at 8 knots Greater than 6 miles
  • Scattered at 3,000' AGL
From Oct-18 @ 16:00 to Oct-19 @ 01:00
FM181600 08012KT P6SM SCT025 SCT250
Wind Visibility Clouds
80° at 12 knots Greater than 6 miles
  • Scattered at 2,500' AGL
  • Scattered at 25,000' AGL
From Oct-19 @ 01:00 to Oct-19 @ 12:00
FM190100 07008KT P6SM SCT030 SCT250
Wind Visibility Clouds
70° at 8 knots Greater than 6 miles
  • Scattered at 3,000' AGL
  • Scattered at 25,000' AGL
KPBI 181120Z 1812/1912 07008KT P6SM SCT030 FM181600 08012KT P6SM SCT025 SCT250 FM190100 07008KT P6SM SCT030 SCT250
Issued Oct-18 @ 11:20 UTC
(45 minutes ago)
Valid From Oct-18 @ 12:00 UTC
(5 minutes ago)
Valid To Oct-19 @ 12:00 UTC
(in 24 hours)
Oct-18 @ 12:00 - Oct-18 @ 16:00
Wind Visibility
70° at 8 knots Greater than 6 miles
Clouds
  • Scattered at 3,000' AGL
From Oct-18 @ 16:00 - Oct-19 @ 01:00
Wind Visibility
80° at 12 knots Greater than 6 miles
Clouds
  • Scattered at 2,500' AGL
  • Scattered at 25,000' AGL
From Oct-19 @ 01:00 - Oct-19 @ 12:00
Wind Visibility
70° at 8 knots Greater than 6 miles
Clouds
  • Scattered at 3,000' AGL
  • Scattered at 25,000' AGL